Rohrsburg, Pennsylvania
Current Conditions -  °F | °C
As of 6:15 PM on Wednesday 17 Dec 2014 (Local Time) from KHZL Reporting Station
Overcast Overcast  
Wind Chill: -4°   Ceiling: 3000
Heat Index:   Visibility: 10mi
Dew Point: -1°   Wind: 12mph
Humidity: 87%   Direction: 270°W
Pressure: 29.92"   Gusts: 16mph
Location:  41.1114°N, 76.3684°W
Report Text: KHZL 172315Z AUTO 27010G14KT 10SM SCT015 BKN030 OVC039 01/M01 A2992 RMK AO2
Loading
Personal Weather Stations






























Interactive Weather Map New forecast layout! Learn more

10-Day Weather Forecast

Advertisements
Track Severe Weather on mobile